»·PEaware :: N505AP KSBD-KEMT

N505AP :: KSBD-KEMT

FLIGHT INFORMATION

Flight Status: Arrived
Operator: Privately registered:
United States
More flights under this callsign
Pilot: Ryan B. (26253)
Aircraft: CESSNA 172 SKYHAWK
(C172)
More flights by this aircraft type
Origin: KSBD San Bernardino Intl
United States
Destination: KEMT El Monte
United States
More flights between these airports :: More routes between these airports
Route: +KSBD KEMT
File this flight plan on PilotEdge
Remarks: CAT-07 Rating
Altitude:
(Current/Filed)
4,500ft
Speed:
(Current/Filed)
115kts
Departed: 14-Oct-19 09:23 AM
Arrived: 14-Oct-19 10:00 AM
Distance/Time
Traveled:
40nm/0:37
Distance/Time
To Go:
Arrived

Flight Plot

Page will automatically refresh every two minutes.

Flight plan parsing failed; only flown route is shown


Map Options




Map Legend


Flown Route
Filed Route
Departure Airport
Arrival Airport
Navaid (VOR, NDB)
Fix

Horizontal Profiles

Position Reports

Time Latitude Longitude Heading Altitude Ground
Speed
14-Oct-19 09:08 34.102166 -117.224730 93 1146ft 0kts
14-Oct-19 09:09 34.102166 -117.224730 93 1146ft 0kts
14-Oct-19 09:10 34.102166 -117.224730 93 1146ft 0kts
14-Oct-19 09:11 34.101966 -117.224756 183 1146ft 7kts
14-Oct-19 09:12 34.100348 -117.225146 247 1145ft 1kts
14-Oct-19 09:13 34.099012 -117.228552 250 1135ft 19kts
14-Oct-19 09:14 34.097235 -117.234548 250 1120ft 28kts
14-Oct-19 09:15 34.095044 -117.241962 251 1099ft 30kts
14-Oct-19 09:16 34.093061 -117.248667 250 1086ft 26kts
14-Oct-19 09:17 34.091646 -117.250804 159 1082ft 0kts
14-Oct-19 09:18 34.091647 -117.250804 159 1082ft 0kts
14-Oct-19 09:19 34.091647 -117.250804 159 1082ft 0kts
14-Oct-19 09:20 34.091647 -117.250804 159 1082ft 0kts
14-Oct-19 09:21 34.091647 -117.250804 159 1082ft 0kts
14-Oct-19 09:22 34.091628 -117.247132 71 1089ft 65kts
14-Oct-19 09:23 34.098892 -117.231442 15 1731ft 81kts
14-Oct-19 09:24 34.105854 -117.234202 325 2079ft 78kts
14-Oct-19 09:25 34.116698 -117.243588 322 2670ft 79kts
14-Oct-19 09:26 34.130575 -117.258134 312 3431ft 81kts
14-Oct-19 09:27 34.139900 -117.275661 275 4098ft 84kts
14-Oct-19 09:28 34.144807 -117.295323 287 4701ft 85kts
14-Oct-19 09:29 34.147560 -117.317872 271 4579ft 104kts
14-Oct-19 09:30 34.139513 -117.340587 237 4427ft 106kts
14-Oct-19 09:31 34.127709 -117.363355 239 4485ft 113kts
14-Oct-19 09:32 34.117524 -117.388967 247 4499ft 119kts
14-Oct-19 09:33 34.109761 -117.412010 247 4507ft 120kts
14-Oct-19 09:34 34.100070 -117.439027 248 4492ft 121kts
14-Oct-19 09:35 34.096087 -117.466823 273 4528ft 119kts
14-Oct-19 09:36 34.096406 -117.495306 269 4536ft 119kts
14-Oct-19 09:37 34.096862 -117.523104 271 4542ft 119kts
14-Oct-19 09:38 34.097010 -117.551182 271 4526ft 121kts
14-Oct-19 09:39 34.097969 -117.578559 272 4507ft 122kts
14-Oct-19 09:40 34.098191 -117.607224 271 4469ft 122kts
14-Oct-19 09:41 34.098449 -117.635583 271 4472ft 121kts
14-Oct-19 09:42 34.098600 -117.658590 266 4475ft 120kts
14-Oct-19 09:43 34.095036 -117.685217 256 4499ft 119kts
14-Oct-19 09:44 34.089212 -117.712319 265 4451ft 120kts
14-Oct-19 09:45 34.089766 -117.740351 273 4441ft 121kts
14-Oct-19 09:46 34.091227 -117.768586 273 4379ft 123kts
14-Oct-19 09:47 34.091960 -117.798053 268 4415ft 120kts
14-Oct-19 09:48 34.089804 -117.827326 267 4478ft 119kts
14-Oct-19 09:49 34.090895 -117.856685 273 4535ft 119kts
14-Oct-19 09:50 34.090252 -117.885438 267 4345ft 115kts
14-Oct-19 09:51 34.089535 -117.914026 269 2995ft 119kts
14-Oct-19 09:52 34.088036 -117.942602 262 2017ft 120kts
14-Oct-19 09:53 34.087390 -117.972292 270 1871ft 117kts
14-Oct-19 09:54 34.085736 -117.999856 266 2125ft 115kts
14-Oct-19 09:55 34.089692 -118.021605 41 1710ft 114kts
14-Oct-19 09:56 34.099643 -118.005572 1 1218ft 86kts
14-Oct-19 09:57 34.094079 -118.019034 238 876ft 93kts
14-Oct-19 09:58 34.087728 -118.033854 204 288ft 58kts
14-Oct-19 09:59 34.083067 -118.036074 117 284ft 5kts
14-Oct-19 10:00 34.082634 -118.035600 69 285ft 1kts

Navigation Log

Ident Type
Flight plan parsing failed, navigation log unavailable